sensor_id;sensor_type;location;lat;lon;timestamp;temperature;humidity
66019;HTU21D;52787;51.084;5.816;2023-05-27T00:00:04;15.23;61.47
66019;HTU21D;52787;51.084;5.816;2023-05-27T00:02:30;15.13;61.83
66019;HTU21D;52787;51.084;5.816;2023-05-27T00:04:56;15.03;62.30
66019;HTU21D;52787;51.084;5.816;2023-05-27T00:07:22;14.96;62.60
66019;HTU21D;52787;51.084;5.816;2023-05-27T00:09:48;14.95;62.69
66019;HTU21D;52787;51.084;5.816;2023-05-27T00:12:13;14.88;62.90
66019;HTU21D;52787;51.084;5.816;2023-05-27T00:14:40;14.83;63.12
66019;HTU21D;52787;51.084;5.816;2023-05-27T00:17:06;14.83;63.04
66019;HTU21D;52787;51.084;5.816;2023-05-27T00:19:34;14.80;63.14
66019;HTU21D;52787;51.084;5.816;2023-05-27T00:22:00;14.77;63.21
66019;HTU21D;52787;51.084;5.816;2023-05-27T00:24:27;14.74;63.24
66019;HTU21D;52787;51.084;5.816;2023-05-27T00:26:52;14.73;63.22
66019;HTU21D;52787;51.084;5.816;2023-05-27T00:29:18;14.73;63.18
66019;HTU21D;52787;51.084;5.816;2023-05-27T00:31:44;14.71;63.22
66019;HTU21D;52787;51.084;5.816;2023-05-27T00:34:11;14.67;63.29
66019;HTU21D;52787;51.084;5.816;2023-05-27T00:36:37;14.65;63.42
66019;HTU21D;52787;51.084;5.816;2023-05-27T00:39:02;14.59;63.52
66019;HTU21D;52787;51.084;5.816;2023-05-27T00:41:29;14.54;63.56
66019;HTU21D;52787;51.084;5.816;2023-05-27T00:43:58;14.50;63.66
66019;HTU21D;52787;51.084;5.816;2023-05-27T00:46:24;14.48;63.64
66019;HTU21D;52787;51.084;5.816;2023-05-27T00:48:50;14.38;63.89
66019;HTU21D;52787;51.084;5.816;2023-05-27T00:51:15;14.28;64.28
66019;HTU21D;52787;51.084;5.816;2023-05-27T00:53:43;14.20;64.62
66019;HTU21D;52787;51.084;5.816;2023-05-27T00:56:11;14.14;64.88
66019;HTU21D;52787;51.084;5.816;2023-05-27T00:58:41;14.15;64.82
66019;HTU21D;52787;51.084;5.816;2023-05-27T01:01:07;14.23;64.51
66019;HTU21D;52787;51.084;5.816;2023-05-27T01:03:35;14.26;64.23
66019;HTU21D;52787;51.084;5.816;2023-05-27T01:09:11;14.24;64.12
66019;HTU21D;52787;51.084;5.816;2023-05-27T01:11:51;14.18;64.17
66019;HTU21D;52787;51.084;5.816;2023-05-27T01:14:28;14.15;64.46
66019;HTU21D;52787;51.084;5.816;2023-05-27T01:16:57;14.12;64.56
66019;HTU21D;52787;51.084;5.816;2023-05-27T01:19:45;14.06;64.76
66019;HTU21D;52787;51.084;5.816;2023-05-27T01:22:12;13.97;65.21
66019;HTU21D;52787;51.084;5.816;2023-05-27T01:24:39;13.98;65.27
66019;HTU21D;52787;51.084;5.816;2023-05-27T01:27:07;14.06;64.86
66019;HTU21D;52787;51.084;5.816;2023-05-27T01:29:35;14.06;64.78
66019;HTU21D;52787;51.084;5.816;2023-05-27T01:35:02;14.00;64.97
66019;HTU21D;52787;51.084;5.816;2023-05-27T01:37:35;13.96;65.07
66019;HTU21D;52787;51.084;5.816;2023-05-27T01:40:05;13.94;65.04
66019;HTU21D;52787;51.084;5.816;2023-05-27T01:42:35;13.92;65.24
66019;HTU21D;52787;51.084;5.816;2023-05-27T01:45:05;13.89;65.40
66019;HTU21D;52787;51.084;5.816;2023-05-27T01:47:32;13.92;65.24
66019;HTU21D;52787;51.084;5.816;2023-05-27T01:50:01;13.93;65.01
66019;HTU21D;52787;51.084;5.816;2023-05-27T01:52:27;13.99;64.59
66019;HTU21D;52787;51.084;5.816;2023-05-27T01:54:53;13.98;64.50
66019;HTU21D;52787;51.084;5.816;2023-05-27T01:57:19;13.97;64.56
66019;HTU21D;52787;51.084;5.816;2023-05-27T01:59:46;13.95;64.52
66019;HTU21D;52787;51.084;5.816;2023-05-27T02:02:12;13.88;64.72
66019;HTU21D;52787;51.084;5.816;2023-05-27T02:04:38;13.82;64.90
66019;HTU21D;52787;51.084;5.816;2023-05-27T02:07:04;13.71;65.27
66019;HTU21D;52787;51.084;5.816;2023-05-27T02:09:31;13.68;65.35
66019;HTU21D;52787;51.084;5.816;2023-05-27T02:11:56;13.68;65.32
66019;HTU21D;52787;51.084;5.816;2023-05-27T02:14:22;13.68;65.15
66019;HTU21D;52787;51.084;5.816;2023-05-27T02:16:48;13.64;65.24
66019;HTU21D;52787;51.084;5.816;2023-05-27T02:19:17;13.67;65.02
66019;HTU21D;52787;51.084;5.816;2023-05-27T02:21:45;13.69;64.79
66019;HTU21D;52787;51.084;5.816;2023-05-27T02:24:12;13.66;64.76
66019;HTU21D;52787;51.084;5.816;2023-05-27T02:26:37;13.58;64.99
66019;HTU21D;52787;51.084;5.816;2023-05-27T02:29:03;13.52;65.21
66019;HTU21D;52787;51.084;5.816;2023-05-27T02:31:29;13.47;65.34
66019;HTU21D;52787;51.084;5.816;2023-05-27T02:33:55;13.43;65.53
66019;HTU21D;52787;51.084;5.816;2023-05-27T02:36:20;13.40;65.57
66019;HTU21D;52787;51.084;5.816;2023-05-27T02:38:46;13.36;65.69
66019;HTU21D;52787;51.084;5.816;2023-05-27T02:41:12;13.27;65.88
66019;HTU21D;52787;51.084;5.816;2023-05-27T02:43:38;13.24;66.12
66019;HTU21D;52787;51.084;5.816;2023-05-27T02:46:03;13.31;65.73
66019;HTU21D;52787;51.084;5.816;2023-05-27T02:48:29;13.34;65.59
66019;HTU21D;52787;51.084;5.816;2023-05-27T02:50:55;13.40;65.38
66019;HTU21D;52787;51.084;5.816;2023-05-27T02:53:20;13.38;65.53
66019;HTU21D;52787;51.084;5.816;2023-05-27T02:55:46;13.34;65.73
66019;HTU21D;52787;51.084;5.816;2023-05-27T02:58:12;13.27;65.92
66019;HTU21D;52787;51.084;5.816;2023-05-27T03:00:38;13.18;66.39
66019;HTU21D;52787;51.084;5.816;2023-05-27T03:03:03;13.09;66.78
66019;HTU21D;52787;51.084;5.816;2023-05-27T03:05:30;13.07;67.07
66019;HTU21D;52787;51.084;5.816;2023-05-27T03:07:56;13.14;66.75
66019;HTU21D;52787;51.084;5.816;2023-05-27T03:10:22;13.18;66.47
66019;HTU21D;52787;51.084;5.816;2023-05-27T03:12:47;13.12;66.67
66019;HTU21D;52787;51.084;5.816;2023-05-27T03:15:13;13.06;66.87
66019;HTU21D;52787;51.084;5.816;2023-05-27T03:17:40;13.08;66.71
66019;HTU21D;52787;51.084;5.816;2023-05-27T03:20:06;13.08;66.76
66019;HTU21D;52787;51.084;5.816;2023-05-27T03:22:34;13.07;66.81
66019;HTU21D;52787;51.084;5.816;2023-05-27T03:25:02;13.06;66.94
66019;HTU21D;52787;51.084;5.816;2023-05-27T03:27:28;13.04;66.96
66019;HTU21D;52787;51.084;5.816;2023-05-27T03:29:54;13.05;66.98
66019;HTU21D;52787;51.084;5.816;2023-05-27T03:32:20;12.97;67.19
66019;HTU21D;52787;51.084;5.816;2023-05-27T03:34:46;12.87;67.56
66019;HTU21D;52787;51.084;5.816;2023-05-27T03:37:11;12.85;67.78
66019;HTU21D;52787;51.084;5.816;2023-05-27T03:39:39;12.81;67.83
66019;HTU21D;52787;51.084;5.816;2023-05-27T03:42:06;12.82;67.97
66019;HTU21D;52787;51.084;5.816;2023-05-27T03:44:32;12.81;67.97
66019;HTU21D;52787;51.084;5.816;2023-05-27T03:47:00;12.80;68.20
66019;HTU21D;52787;51.084;5.816;2023-05-27T03:49:27;12.81;68.35
66019;HTU21D;52787;51.084;5.816;2023-05-27T03:51:53;12.88;68.15
66019;HTU21D;52787;51.084;5.816;2023-05-27T03:54:19;12.93;67.99
66019;HTU21D;52787;51.084;5.816;2023-05-27T03:56:44;12.93;68.01
66019;HTU21D;52787;51.084;5.816;2023-05-27T03:59:10;12.88;68.21
66019;HTU21D;52787;51.084;5.816;2023-05-27T04:01:37;12.86;68.37
66019;HTU21D;52787;51.084;5.816;2023-05-27T04:04:03;12.86;68.48
66019;HTU21D;52787;51.084;5.816;2023-05-27T04:06:29;12.82;68.54
66019;HTU21D;52787;51.084;5.816;2023-05-27T04:08:57;12.73;68.99
66019;HTU21D;52787;51.084;5.816;2023-05-27T04:11:25;12.74;69.10
66019;HTU21D;52787;51.084;5.816;2023-05-27T04:13:52;12.84;68.70
66019;HTU21D;52787;51.084;5.816;2023-05-27T04:16:18;12.87;68.56
66019;HTU21D;52787;51.084;5.816;2023-05-27T04:18:44;12.85;68.64
66019;HTU21D;52787;51.084;5.816;2023-05-27T04:21:15;12.87;68.49
66019;HTU21D;52787;51.084;5.816;2023-05-27T04:23:41;12.90;68.42
66019;HTU21D;52787;51.084;5.816;2023-05-27T04:26:07;12.97;68.29
66019;HTU21D;52787;51.084;5.816;2023-05-27T04:28:33;13.05;67.88
66019;HTU21D;52787;51.084;5.816;2023-05-27T04:31:01;13.06;67.89
66019;HTU21D;52787;51.084;5.816;2023-05-27T04:33:26;13.04;67.84
66019;HTU21D;52787;51.084;5.816;2023-05-27T04:35:53;13.01;67.89
66019;HTU21D;52787;51.084;5.816;2023-05-27T04:38:22;12.94;68.19
66019;HTU21D;52787;51.084;5.816;2023-05-27T04:40:51;12.97;67.98
66019;HTU21D;52787;51.084;5.816;2023-05-27T04:43:21;13.02;68.00
66019;HTU21D;52787;51.084;5.816;2023-05-27T04:45:47;13.05;67.83
66019;HTU21D;52787;51.084;5.816;2023-05-27T04:48:14;12.97;67.91
66019;HTU21D;52787;51.084;5.816;2023-05-27T04:50:41;12.96;67.83
66019;HTU21D;52787;51.084;5.816;2023-05-27T04:53:08;12.88;68.18
66019;HTU21D;52787;51.084;5.816;2023-05-27T04:55:34;12.85;68.52
66019;HTU21D;52787;51.084;5.816;2023-05-27T04:58:00;12.92;68.30
66019;HTU21D;52787;51.084;5.816;2023-05-27T05:00:31;13.04;67.89
66019;HTU21D;52787;51.084;5.816;2023-05-27T05:03:16;13.10;67.72
66019;HTU21D;52787;51.084;5.816;2023-05-27T05:05:51;13.11;67.46
66019;HTU21D;52787;51.084;5.816;2023-05-27T05:08:21;13.12;67.27
66019;HTU21D;52787;51.084;5.816;2023-05-27T05:10:48;13.14;67.23
66019;HTU21D;52787;51.084;5.816;2023-05-27T05:13:14;13.14;67.17
66019;HTU21D;52787;51.084;5.816;2023-05-27T05:15:41;13.08;67.42
66019;HTU21D;52787;51.084;5.816;2023-05-27T05:18:10;13.12;67.41
66019;HTU21D;52787;51.084;5.816;2023-05-27T05:20:37;13.18;67.10
66019;HTU21D;52787;51.084;5.816;2023-05-27T05:23:03;13.25;66.95
66019;HTU21D;52787;51.084;5.816;2023-05-27T05:25:29;13.30;66.91
66019;HTU21D;52787;51.084;5.816;2023-05-27T05:28:00;13.34;66.87
66019;HTU21D;52787;51.084;5.816;2023-05-27T05:30:26;13.35;66.88
66019;HTU21D;52787;51.084;5.816;2023-05-27T05:32:52;13.31;67.03
66019;HTU21D;52787;51.084;5.816;2023-05-27T05:35:18;13.24;67.33
66019;HTU21D;52787;51.084;5.816;2023-05-27T05:37:44;13.24;67.63
66019;HTU21D;52787;51.084;5.816;2023-05-27T05:40:10;13.31;67.51
66019;HTU21D;52787;51.084;5.816;2023-05-27T05:42:36;13.30;67.55
66019;HTU21D;52787;51.084;5.816;2023-05-27T05:45:02;13.37;67.33
66019;HTU21D;52787;51.084;5.816;2023-05-27T05:47:29;13.44;67.07
66019;HTU21D;52787;51.084;5.816;2023-05-27T05:49:54;13.53;66.81
66019;HTU21D;52787;51.084;5.816;2023-05-27T05:52:20;13.63;66.49
66019;HTU21D;52787;51.084;5.816;2023-05-27T05:54:46;13.70;66.31
66019;HTU21D;52787;51.084;5.816;2023-05-27T05:57:12;13.76;66.24
66019;HTU21D;52787;51.084;5.816;2023-05-27T05:59:37;13.82;65.88
66019;HTU21D;52787;51.084;5.816;2023-05-27T06:02:03;13.83;65.86
66019;HTU21D;52787;51.084;5.816;2023-05-27T06:04:29;13.90;65.81
66019;HTU21D;52787;51.084;5.816;2023-05-27T06:06:55;13.94;65.69
66019;HTU21D;52787;51.084;5.816;2023-05-27T06:09:22;13.97;65.59
66019;HTU21D;52787;51.084;5.816;2023-05-27T06:11:48;14.01;65.53
66019;HTU21D;52787;51.084;5.816;2023-05-27T06:14:14;14.07;65.58
66019;HTU21D;52787;51.084;5.816;2023-05-27T06:16:40;14.11;65.57
66019;HTU21D;52787;51.084;5.816;2023-05-27T06:19:06;14.19;65.31
66019;HTU21D;52787;51.084;5.816;2023-05-27T06:21:32;14.24;65.24
66019;HTU21D;52787;51.084;5.816;2023-05-27T06:23:59;14.26;65.20
66019;HTU21D;52787;51.084;5.816;2023-05-27T06:26:25;14.28;64.92
66019;HTU21D;52787;51.084;5.816;2023-05-27T06:28:53;14.33;64.65
66019;HTU21D;52787;51.084;5.816;2023-05-27T06:31:19;14.30;64.88
66019;HTU21D;52787;51.084;5.816;2023-05-27T06:33:44;14.34;64.87
66019;HTU21D;52787;51.084;5.816;2023-05-27T06:36:10;14.38;65.01
66019;HTU21D;52787;51.084;5.816;2023-05-27T06:38:37;14.42;64.94
66019;HTU21D;52787;51.084;5.816;2023-05-27T06:41:02;14.47;64.97
66019;HTU21D;52787;51.084;5.816;2023-05-27T06:43:28;14.51;64.84
66019;HTU21D;52787;51.084;5.816;2023-05-27T06:45:54;14.56;64.93
66019;HTU21D;52787;51.084;5.816;2023-05-27T06:48:20;14.65;64.98
66019;HTU21D;52787;51.084;5.816;2023-05-27T06:50:46;14.73;64.63
66019;HTU21D;52787;51.084;5.816;2023-05-27T06:53:12;14.80;64.24
66019;HTU21D;52787;51.084;5.816;2023-05-27T06:55:38;14.87;64.21
66019;HTU21D;52787;51.084;5.816;2023-05-27T06:58:04;14.98;63.92
66019;HTU21D;52787;51.084;5.816;2023-05-27T07:00:30;15.06;63.54
66019;HTU21D;52787;51.084;5.816;2023-05-27T07:02:56;15.10;63.16
66019;HTU21D;52787;51.084;5.816;2023-05-27T07:05:22;15.15;62.98
66019;HTU21D;52787;51.084;5.816;2023-05-27T07:07:48;15.17;63.27
66019;HTU21D;52787;51.084;5.816;2023-05-27T07:10:14;15.21;62.98
66019;HTU21D;52787;51.084;5.816;2023-05-27T07:12:40;15.29;62.79
66019;HTU21D;52787;51.084;5.816;2023-05-27T07:15:06;15.40;62.83
66019;HTU21D;52787;51.084;5.816;2023-05-27T07:17:32;15.49;62.48
66019;HTU21D;52787;51.084;5.816;2023-05-27T07:19:58;15.58;62.05
66019;HTU21D;52787;51.084;5.816;2023-05-27T07:22:23;15.67;62.06
66019;HTU21D;52787;51.084;5.816;2023-05-27T07:24:50;15.74;61.93
66019;HTU21D;52787;51.084;5.816;2023-05-27T07:27:16;15.83;61.61
66019;HTU21D;52787;51.084;5.816;2023-05-27T07:29:42;15.91;61.44
66019;HTU21D;52787;51.084;5.816;2023-05-27T07:32:07;16.01;61.25
66019;HTU21D;52787;51.084;5.816;2023-05-27T07:34:33;16.06;60.83
66019;HTU21D;52787;51.084;5.816;2023-05-27T07:36:59;16.17;60.99
66019;HTU21D;52787;51.084;5.816;2023-05-27T07:39:25;16.29;60.60
66019;HTU21D;52787;51.084;5.816;2023-05-27T07:41:51;16.39;60.38
66019;HTU21D;52787;51.084;5.816;2023-05-27T07:44:18;16.47;60.13
66019;HTU21D;52787;51.084;5.816;2023-05-27T07:46:44;16.57;59.86
66019;HTU21D;52787;51.084;5.816;2023-05-27T07:49:10;16.65;59.46
66019;HTU21D;52787;51.084;5.816;2023-05-27T07:51:35;16.71;59.12
66019;HTU21D;52787;51.084;5.816;2023-05-27T07:54:02;16.78;58.06
66019;HTU21D;52787;51.084;5.816;2023-05-27T07:56:27;16.88;58.21
66019;HTU21D;52787;51.084;5.816;2023-05-27T07:58:53;17.00;58.32
66019;HTU21D;52787;51.084;5.816;2023-05-27T08:01:19;17.08;57.97
66019;HTU21D;52787;51.084;5.816;2023-05-27T08:03:45;17.18;57.39
66019;HTU21D;52787;51.084;5.816;2023-05-27T08:06:11;17.26;57.10
66019;HTU21D;52787;51.084;5.816;2023-05-27T08:08:36;17.36;57.17
66019;HTU21D;52787;51.084;5.816;2023-05-27T08:11:02;17.43;57.06
66019;HTU21D;52787;51.084;5.816;2023-05-27T08:13:28;17.51;56.81
66019;HTU21D;52787;51.084;5.816;2023-05-27T08:15:54;17.60;56.60
66019;HTU21D;52787;51.084;5.816;2023-05-27T08:18:19;17.69;55.94
66019;HTU21D;52787;51.084;5.816;2023-05-27T08:20:48;17.78;55.49
66019;HTU21D;52787;51.084;5.816;2023-05-27T08:23:14;17.88;54.86
66019;HTU21D;52787;51.084;5.816;2023-05-27T08:25:40;17.96;54.59
66019;HTU21D;52787;51.084;5.816;2023-05-27T08:28:06;18.06;54.07
66019;HTU21D;52787;51.084;5.816;2023-05-27T08:30:32;18.19;53.64
66019;HTU21D;52787;51.084;5.816;2023-05-27T08:32:58;18.26;53.95
66019;HTU21D;52787;51.084;5.816;2023-05-27T08:35:24;18.35;54.19
66019;HTU21D;52787;51.084;5.816;2023-05-27T08:37:50;18.47;53.84
66019;HTU21D;52787;51.084;5.816;2023-05-27T08:40:18;18.58;53.44
66019;HTU21D;52787;51.084;5.816;2023-05-27T08:42:46;18.67;53.15
66019;HTU21D;52787;51.084;5.816;2023-05-27T08:45:13;18.77;52.56
66019;HTU21D;52787;51.084;5.816;2023-05-27T08:47:39;18.85;52.55
66019;HTU21D;52787;51.084;5.816;2023-05-27T08:50:06;18.98;52.26
66019;HTU21D;52787;51.084;5.816;2023-05-27T08:52:33;19.10;52.64
66019;HTU21D;52787;51.084;5.816;2023-05-27T08:55:01;19.23;52.57
66019;HTU21D;52787;51.084;5.816;2023-05-27T08:57:30;19.32;52.12
66019;HTU21D;52787;51.084;5.816;2023-05-27T08:59:57;19.39;51.71
66019;HTU21D;52787;51.084;5.816;2023-05-27T09:02:24;19.51;50.93
66019;HTU21D;52787;51.084;5.816;2023-05-27T09:04:50;19.67;50.27
66019;HTU21D;52787;51.084;5.816;2023-05-27T09:07:19;19.75;49.27
66019;HTU21D;52787;51.084;5.816;2023-05-27T09:09:56;19.83;49.17
66019;HTU21D;52787;51.084;5.816;2023-05-27T09:12:24;19.95;49.06
66019;HTU21D;52787;51.084;5.816;2023-05-27T09:14:52;20.11;48.37
66019;HTU21D;52787;51.084;5.816;2023-05-27T09:17:22;20.25;48.27
66019;HTU21D;52787;51.084;5.816;2023-05-27T09:19:50;20.36;47.85
66019;HTU21D;52787;51.084;5.816;2023-05-27T09:22:24;20.49;48.76
66019;HTU21D;52787;51.084;5.816;2023-05-27T09:24:55;20.65;48.76
66019;HTU21D;52787;51.084;5.816;2023-05-27T09:27:29;20.77;48.08
66019;HTU21D;52787;51.084;5.816;2023-05-27T09:29:57;20.91;47.92
66019;HTU21D;52787;51.084;5.816;2023-05-27T09:32:33;21.03;46.73
66019;HTU21D;52787;51.084;5.816;2023-05-27T09:35:00;21.16;46.16
66019;HTU21D;52787;51.084;5.816;2023-05-27T09:37:27;21.29;46.12
66019;HTU21D;52787;51.084;5.816;2023-05-27T09:40:13;21.45;45.77
66019;HTU21D;52787;51.084;5.816;2023-05-27T09:42:43;21.57;45.37
66019;HTU21D;52787;51.084;5.816;2023-05-27T09:45:12;21.67;45.46
66019;HTU21D;52787;51.084;5.816;2023-05-27T09:47:50;21.76;44.99
66019;HTU21D;52787;51.084;5.816;2023-05-27T09:50:18;21.79;44.45
66019;HTU21D;52787;51.084;5.816;2023-05-27T09:52:46;21.87;45.26
66019;HTU21D;52787;51.084;5.816;2023-05-27T09:55:14;21.93;45.18
66019;HTU21D;52787;51.084;5.816;2023-05-27T09:57:42;21.95;45.51
66019;HTU21D;52787;51.084;5.816;2023-05-27T10:00:11;21.94;45.45
66019;HTU21D;52787;51.084;5.816;2023-05-27T10:02:56;21.99;46.28
66019;HTU21D;52787;51.084;5.816;2023-05-27T10:05:27;22.05;46.38
66019;HTU21D;52787;51.084;5.816;2023-05-27T10:07:53;22.06;46.83
66019;HTU21D;52787;51.084;5.816;2023-05-27T10:10:19;22.05;46.82
66019;HTU21D;52787;51.084;5.816;2023-05-27T10:12:48;22.06;46.46
66019;HTU21D;52787;51.084;5.816;2023-05-27T10:15:30;22.07;45.13
66019;HTU21D;52787;51.084;5.816;2023-05-27T10:17:59;22.09;43.89
66019;HTU21D;52787;51.084;5.816;2023-05-27T10:20:32;22.13;42.88
66019;HTU21D;52787;51.084;5.816;2023-05-27T10:23:28;22.19;42.31
66019;HTU21D;52787;51.084;5.816;2023-05-27T10:26:01;22.20;41.68
66019;HTU21D;52787;51.084;5.816;2023-05-27T10:28:35;22.25;41.20
66019;HTU21D;52787;51.084;5.816;2023-05-27T10:31:29;22.31;40.80
66019;HTU21D;52787;51.084;5.816;2023-05-27T10:33:57;22.37;41.20
66019;HTU21D;52787;51.084;5.816;2023-05-27T10:36:26;22.43;41.39
66019;HTU21D;52787;51.084;5.816;2023-05-27T10:39:00;22.52;40.95
66019;HTU21D;52787;51.084;5.816;2023-05-27T10:41:43;22.61;40.48
66019;HTU21D;52787;51.084;5.816;2023-05-27T10:44:10;22.67;40.19
66019;HTU21D;52787;51.084;5.816;2023-05-27T10:46:41;22.71;39.45
66019;HTU21D;52787;51.084;5.816;2023-05-27T10:49:15;22.76;39.46
66019;HTU21D;52787;51.084;5.816;2023-05-27T10:51:48;22.79;39.75
66019;HTU21D;52787;51.084;5.816;2023-05-27T10:54:15;22.85;39.56
66019;HTU21D;52787;51.084;5.816;2023-05-27T10:56:51;22.92;39.12
66019;HTU21D;52787;51.084;5.816;2023-05-27T10:59:22;22.95;39.46
66019;HTU21D;52787;51.084;5.816;2023-05-27T11:01:52;23.00;39.75
66019;HTU21D;52787;51.084;5.816;2023-05-27T11:04:19;23.05;39.43
66019;HTU21D;52787;51.084;5.816;2023-05-27T11:07:00;23.11;39.25
66019;HTU21D;52787;51.084;5.816;2023-05-27T11:09:26;23.15;39.61
66019;HTU21D;52787;51.084;5.816;2023-05-27T11:11:55;23.22;38.28
66019;HTU21D;52787;51.084;5.816;2023-05-27T11:14:23;23.30;38.83
66019;HTU21D;52787;51.084;5.816;2023-05-27T11:16:49;23.36;39.05
66019;HTU21D;52787;51.084;5.816;2023-05-27T11:19:20;23.45;38.92
66019;HTU21D;52787;51.084;5.816;2023-05-27T11:21:47;23.55;39.20
66019;HTU21D;52787;51.084;5.816;2023-05-27T11:24:18;23.62;39.94
66019;HTU21D;52787;51.084;5.816;2023-05-27T11:26:46;23.69;39.02
66019;HTU21D;52787;51.084;5.816;2023-05-27T11:29:15;23.79;39.23
66019;HTU21D;52787;51.084;5.816;2023-05-27T11:31:45;23.91;38.55
66019;HTU21D;52787;51.084;5.816;2023-05-27T11:34:13;24.01;38.17
66019;HTU21D;52787;51.084;5.816;2023-05-27T11:36:43;24.09;38.07
66019;HTU21D;52787;51.084;5.816;2023-05-27T11:39:12;24.13;37.48
66019;HTU21D;52787;51.084;5.816;2023-05-27T11:41:52;24.17;36.88
66019;HTU21D;52787;51.084;5.816;2023-05-27T11:44:23;24.18;37.27
66019;HTU21D;52787;51.084;5.816;2023-05-27T11:46:51;24.24;37.25
66019;HTU21D;52787;51.084;5.816;2023-05-27T11:49:19;24.32;37.05
66019;HTU21D;52787;51.084;5.816;2023-05-27T11:51:50;24.39;36.42
66019;HTU21D;52787;51.084;5.816;2023-05-27T11:54:22;24.45;35.78
66019;HTU21D;52787;51.084;5.816;2023-05-27T11:56:50;24.54;36.84
66019;HTU21D;52787;51.084;5.816;2023-05-27T11:59:18;24.62;36.40
66019;HTU21D;52787;51.084;5.816;2023-05-27T12:01:44;24.68;36.06
66019;HTU21D;52787;51.084;5.816;2023-05-27T12:04:11;24.72;34.89
66019;HTU21D;52787;51.084;5.816;2023-05-27T12:06:38;24.73;34.46
66019;HTU21D;52787;51.084;5.816;2023-05-27T12:09:05;24.72;33.82
66019;HTU21D;52787;51.084;5.816;2023-05-27T12:11:34;24.78;33.90
66019;HTU21D;52787;51.084;5.816;2023-05-27T12:14:01;24.88;33.81
66019;HTU21D;52787;51.084;5.816;2023-05-27T12:16:27;24.97;34.41
66019;HTU21D;52787;51.084;5.816;2023-05-27T12:18:53;25.01;33.92
66019;HTU21D;52787;51.084;5.816;2023-05-27T12:21:19;25.08;33.83
66019;HTU21D;52787;51.084;5.816;2023-05-27T12:23:46;25.14;33.74
66019;HTU21D;52787;51.084;5.816;2023-05-27T12:26:14;25.18;33.60
66019;HTU21D;52787;51.084;5.816;2023-05-27T12:28:41;25.21;33.43
66019;HTU21D;52787;51.084;5.816;2023-05-27T12:31:07;25.27;33.52
66019;HTU21D;52787;51.084;5.816;2023-05-27T12:33:34;25.32;32.86
66019;HTU21D;52787;51.084;5.816;2023-05-27T12:36:00;25.35;31.99
66019;HTU21D;52787;51.084;5.816;2023-05-27T12:38:27;25.43;32.79
66019;HTU21D;52787;51.084;5.816;2023-05-27T12:40:53;25.52;32.25
66019;HTU21D;52787;51.084;5.816;2023-05-27T12:43:21;25.61;32.19
66019;HTU21D;52787;51.084;5.816;2023-05-27T12:45:47;25.63;31.96
66019;HTU21D;52787;51.084;5.816;2023-05-27T12:48:13;25.62;31.87
66019;HTU21D;52787;51.084;5.816;2023-05-27T12:50:39;25.65;32.40
66019;HTU21D;52787;51.084;5.816;2023-05-27T12:53:05;25.72;32.06
66019;HTU21D;52787;51.084;5.816;2023-05-27T12:55:33;25.72;31.98
66019;HTU21D;52787;51.084;5.816;2023-05-27T12:58:00;25.73;32.15
66019;HTU21D;52787;51.084;5.816;2023-05-27T13:00:28;25.79;31.51
66019;HTU21D;52787;51.084;5.816;2023-05-27T13:02:54;25.88;32.06
66019;HTU21D;52787;51.084;5.816;2023-05-27T13:05:20;25.97;31.25
66019;HTU21D;52787;51.084;5.816;2023-05-27T13:07:58;26.06;30.92
66019;HTU21D;52787;51.084;5.816;2023-05-27T13:10:26;26.12;31.18
66019;HTU21D;52787;51.084;5.816;2023-05-27T13:12:52;26.12;31.46
66019;HTU21D;52787;51.084;5.816;2023-05-27T13:15:19;26.09;31.53
66019;HTU21D;52787;51.084;5.816;2023-05-27T13:17:46;26.02;31.49
66019;HTU21D;52787;51.084;5.816;2023-05-27T13:20:14;25.92;31.32
66019;HTU21D;52787;51.084;5.816;2023-05-27T13:22:44;25.84;31.67
66019;HTU21D;52787;51.084;5.816;2023-05-27T13:25:12;25.82;31.90
66019;HTU21D;52787;51.084;5.816;2023-05-27T13:27:42;25.83;31.85
66019;HTU21D;52787;51.084;5.816;2023-05-27T13:30:11;25.77;31.77
66019;HTU21D;52787;51.084;5.816;2023-05-27T13:32:44;25.77;31.93
66019;HTU21D;52787;51.084;5.816;2023-05-27T13:35:10;25.73;32.26
66019;HTU21D;52787;51.084;5.816;2023-05-27T13:37:40;25.69;32.99
66019;HTU21D;52787;51.084;5.816;2023-05-27T13:40:08;25.69;33.51
66019;HTU21D;52787;51.084;5.816;2023-05-27T13:42:35;25.78;32.96
66019;HTU21D;52787;51.084;5.816;2023-05-27T13:45:02;25.87;32.96
66019;HTU21D;52787;51.084;5.816;2023-05-27T13:47:28;25.99;32.64
66019;HTU21D;52787;51.084;5.816;2023-05-27T13:49:54;26.08;32.17
66019;HTU21D;52787;51.084;5.816;2023-05-27T13:52:19;26.09;32.02
66019;HTU21D;52787;51.084;5.816;2023-05-27T13:54:45;26.06;31.77
66019;HTU21D;52787;51.084;5.816;2023-05-27T13:57:11;26.07;32.28
66019;HTU21D;52787;51.084;5.816;2023-05-27T13:59:37;26.06;32.42
66019;HTU21D;52787;51.084;5.816;2023-05-27T14:02:03;26.02;32.22
66019;HTU21D;52787;51.084;5.816;2023-05-27T14:04:32;26.03;32.82
66019;HTU21D;52787;51.084;5.816;2023-05-27T14:06:58;26.05;32.68
66019;HTU21D;52787;51.084;5.816;2023-05-27T14:09:23;26.01;32.58
66019;HTU21D;52787;51.084;5.816;2023-05-27T14:11:49;25.91;32.84
66019;HTU21D;52787;51.084;5.816;2023-05-27T14:14:15;25.80;32.51
66019;HTU21D;52787;51.084;5.816;2023-05-27T14:16:41;25.69;32.63
66019;HTU21D;52787;51.084;5.816;2023-05-27T14:19:07;25.57;32.38
66019;HTU21D;52787;51.084;5.816;2023-05-27T14:21:33;25.45;32.49
66019;HTU21D;52787;51.084;5.816;2023-05-27T14:23:58;25.40;33.08
66019;HTU21D;52787;51.084;5.816;2023-05-27T14:26:25;25.38;33.43
66019;HTU21D;52787;51.084;5.816;2023-05-27T14:28:52;25.43;33.95
66019;HTU21D;52787;51.084;5.816;2023-05-27T14:31:18;25.48;33.98
66019;HTU21D;52787;51.084;5.816;2023-05-27T14:33:43;25.58;33.90
66019;HTU21D;52787;51.084;5.816;2023-05-27T14:36:10;25.75;33.83
66019;HTU21D;52787;51.084;5.816;2023-05-27T14:38:36;25.97;33.60
66019;HTU21D;52787;51.084;5.816;2023-05-27T14:41:02;26.16;32.81
66019;HTU21D;52787;51.084;5.816;2023-05-27T14:43:28;26.38;31.71
66019;HTU21D;52787;51.084;5.816;2023-05-27T14:45:54;26.56;31.58
66019;HTU21D;52787;51.084;5.816;2023-05-27T14:48:20;26.72;31.11
66019;HTU21D;52787;51.084;5.816;2023-05-27T14:50:46;26.81;31.65
66019;HTU21D;52787;51.084;5.816;2023-05-27T14:53:12;26.89;30.27
66019;HTU21D;52787;51.084;5.816;2023-05-27T14:55:38;27.00;29.80
66019;HTU21D;52787;51.084;5.816;2023-05-27T14:58:04;27.15;29.43
66019;HTU21D;52787;51.084;5.816;2023-05-27T15:00:32;27.22;28.74
66019;HTU21D;52787;51.084;5.816;2023-05-27T15:02:58;27.30;28.44
66019;HTU21D;52787;51.084;5.816;2023-05-27T15:05:24;27.32;28.74
66019;HTU21D;52787;51.084;5.816;2023-05-27T15:07:50;27.40;28.97
66019;HTU21D;52787;51.084;5.816;2023-05-27T15:10:16;27.44;29.10
66019;HTU21D;52787;51.084;5.816;2023-05-27T15:12:44;27.49;28.84
66019;HTU21D;52787;51.084;5.816;2023-05-27T15:15:19;27.53;28.85
66019;HTU21D;52787;51.084;5.816;2023-05-27T15:17:48;27.57;28.48
66019;HTU21D;52787;51.084;5.816;2023-05-27T15:20:16;27.49;28.77
66019;HTU21D;52787;51.084;5.816;2023-05-27T15:22:44;27.50;29.13